createdAt,value
2022-10-09T00:00:29.071Z,7.64
2022-10-09T00:04:30.654Z,7.63
2022-10-09T00:08:34.829Z,7.59
2022-10-09T00:12:36.350Z,7.56
2022-10-09T00:16:37.886Z,7.51
2022-10-09T00:20:42.285Z,7.47
2022-10-09T00:24:43.832Z,7.44
2022-10-09T00:28:46.376Z,7.40
2022-10-09T00:32:48.171Z,7.36
2022-10-09T00:36:49.958Z,7.30
2022-10-09T00:40:51.988Z,7.28
2022-10-09T00:45:00.025Z,7.23
2022-10-09T00:49:23.526Z,7.17
2022-10-09T00:53:28.454Z,7.32
2022-10-09T00:57:32.686Z,7.50
2022-10-09T01:01:34.501Z,7.66
2022-10-09T01:05:57.343Z,7.74
2022-10-09T01:10:01.859Z,7.64
2022-10-09T01:14:28.857Z,7.49
2022-10-09T01:18:33.473Z,7.39
2022-10-09T01:22:50.839Z,7.44
2022-10-09T01:27:05.107Z,7.46
2022-10-09T01:31:07.939Z,7.35
2022-10-09T01:35:12.561Z,7.33
2022-10-09T01:39:18.265Z,7.24
2022-10-09T01:43:20.052Z,7.18
2022-10-09T01:47:22.215Z,7.23
2022-10-09T01:51:29.767Z,7.30
2022-10-09T01:55:50.137Z,7.26
2022-10-09T01:59:53.454Z,7.26
2022-10-09T02:03:58.339Z,7.20
2022-10-09T02:08:00.143Z,7.14
2022-10-09T02:12:06.636Z,7.11
2022-10-09T02:16:21.380Z,7.04
2022-10-09T02:20:31.020Z,7.02
2022-10-09T02:24:33.065Z,6.98
2022-10-09T02:28:35.217Z,6.95
2022-10-09T02:32:36.790Z,6.93
2022-10-09T02:36:39.232Z,6.85
2022-10-09T02:40:40.889Z,6.85
2022-10-09T02:44:42.600Z,6.80
2022-10-09T02:48:44.685Z,6.82
2022-10-09T02:52:46.447Z,6.80
2022-10-09T02:56:48.099Z,6.78
2022-10-09T03:00:50.755Z,6.72
2022-10-09T03:04:52.317Z,6.83
2022-10-09T03:08:54.831Z,6.72
2022-10-09T03:12:56.440Z,6.66
2022-10-09T03:16:57.881Z,6.62
2022-10-09T03:20:59.474Z,6.69
2022-10-09T03:25:01.012Z,6.68
2022-10-09T03:29:02.554Z,6.70
2022-10-09T03:33:03.990Z,6.63
2022-10-09T03:37:06.045Z,6.61
2022-10-09T03:41:07.653Z,6.63
2022-10-09T03:45:09.600Z,6.49
2022-10-09T03:49:11.108Z,6.46
2022-10-09T03:53:13.839Z,6.43
2022-10-09T03:57:15.402Z,6.33
2022-10-09T04:01:17.060Z,6.32
2022-10-09T04:05:18.812Z,6.30
2022-10-09T04:09:20.317Z,6.25
2022-10-09T04:13:21.736Z,6.23
2022-10-09T04:17:23.373Z,6.23
2022-10-09T04:21:25.046Z,6.23
2022-10-09T04:25:26.676Z,6.15
2022-10-09T04:29:28.176Z,6.02
2022-10-09T04:33:29.932Z,5.96
2022-10-09T04:37:31.454Z,6.05
2022-10-09T04:41:37.446Z,6.04
2022-10-09T04:45:40.598Z,6.00
2022-10-09T04:49:42.191Z,5.92
2022-10-09T04:53:44.601Z,5.86
2022-10-09T04:57:46.106Z,5.89
2022-10-09T05:01:47.642Z,5.79
2022-10-09T05:05:49.223Z,5.81
2022-10-09T05:09:50.823Z,5.83
2022-10-09T05:13:55.560Z,5.96
2022-10-09T05:17:57.204Z,5.83
2022-10-09T05:22:00.257Z,5.74
2022-10-09T05:26:07.296Z,5.70
2022-10-09T05:30:09.539Z,5.73
2022-10-09T05:34:11.415Z,5.73
2022-10-09T05:38:13.051Z,5.73
2022-10-09T05:42:14.558Z,5.83
2022-10-09T05:46:24.712Z,5.98
2022-10-09T05:50:26.264Z,6.12
2022-10-09T05:54:28.012Z,6.33
2022-10-09T05:58:29.538Z,6.58
2022-10-09T06:02:31.078Z,6.70
2022-10-09T06:06:35.672Z,6.98
2022-10-09T06:10:37.474Z,7.20
2022-10-09T06:14:39.098Z,7.42
2022-10-09T06:18:46.761Z,7.82
2022-10-09T06:22:51.738Z,7.43
2022-10-09T06:26:53.402Z,7.79
2022-10-09T06:31:01.592Z,8.05
2022-10-09T06:35:03.200Z,8.50
2022-10-09T06:39:06.824Z,8.85
2022-10-09T06:43:08.554Z,9.38
2022-10-09T06:47:10.094Z,9.71
2022-10-09T06:51:14.732Z,9.99
2022-10-09T06:55:16.312Z,9.98
2022-10-09T06:59:18.052Z,10.45
2022-10-09T07:03:19.566Z,10.77
2022-10-09T07:07:21.317Z,11.57
2022-10-09T07:11:38.726Z,12.15
2022-10-09T07:15:45.903Z,12.49
2022-10-09T07:19:49.104Z,12.38
2022-10-09T07:23:50.663Z,12.39
2022-10-09T07:27:52.273Z,13.04
2022-10-09T07:31:53.786Z,13.43
2022-10-09T07:35:56.900Z,13.39
2022-10-09T07:39:58.401Z,13.43
2022-10-09T07:44:00.380Z,14.13
2022-10-09T07:48:01.884Z,15.11
2022-10-09T07:52:03.406Z,15.64
2022-10-09T07:56:06.184Z,15.85
2022-10-09T08:00:08.445Z,16.70
2022-10-09T08:04:13.836Z,18.13
2022-10-09T08:08:15.569Z,19.31
2022-10-09T08:12:17.122Z,19.90
2022-10-09T08:16:20.555Z,20.86
2022-10-09T08:20:22.452Z,21.77
2022-10-09T08:24:24.009Z,21.68
2022-10-09T08:28:25.918Z,22.79
2022-10-09T08:32:27.525Z,23.66
2022-10-09T08:36:29.624Z,24.20
2022-10-09T08:40:47.037Z,24.70
2022-10-09T08:44:49.803Z,25.76
2022-10-09T08:48:53.879Z,26.73
2022-10-09T08:53:34.685Z,27.33
2022-10-09T08:57:36.361Z,28.11
2022-10-09T09:02:06.050Z,28.31
2022-10-09T09:06:07.604Z,29.33
2022-10-09T09:10:21.363Z,29.80
2022-10-09T09:14:37.789Z,31.98
2022-10-09T09:19:09.515Z,32.47
2022-10-09T09:23:15.752Z,31.93
2022-10-09T09:27:20.507Z,30.92
2022-10-09T09:31:27.200Z,31.31
2022-10-09T09:36:09.425Z,31.61
2022-10-09T09:40:36.823Z,33.58
2022-10-09T09:44:42.829Z,34.31
2022-10-09T09:48:48.535Z,35.01
2022-10-09T09:52:50.721Z,35.43
2022-10-09T09:57:14.826Z,36.92
2022-10-09T10:01:22.769Z,35.93
2022-10-09T10:05:27.289Z,35.87
2022-10-09T10:09:28.996Z,37.61
2022-10-09T10:13:39.476Z,38.35
2022-10-09T10:17:41.334Z,38.64
2022-10-09T10:22:01.332Z,38.21
2022-10-09T10:26:40.023Z,38.64
2022-10-09T10:30:42.811Z,38.24
2022-10-09T10:35:15.036Z,39.68
2022-10-09T10:39:50.879Z,40.17
2022-10-09T10:44:06.907Z,40.33
2022-10-09T10:48:22.213Z,40.55
2022-10-09T10:52:35.948Z,41.13
2022-10-09T10:56:53.281Z,39.74
2022-10-09T11:01:11.698Z,38.76
2022-10-09T11:05:31.736Z,40.63
2022-10-09T11:10:02.733Z,41.06
2022-10-09T11:14:29.128Z,41.64
2022-10-09T11:18:52.513Z,42.58
2022-10-09T11:23:10.597Z,42.44
2022-10-09T11:27:24.762Z,43.37
2022-10-09T11:31:34.989Z,41.48
2022-10-09T11:35:46.125Z,41.89
2022-10-09T11:39:48.214Z,42.29
2022-10-09T11:44:13.608Z,43.35
2022-10-09T11:48:42.576Z,39.58
2022-10-09T11:53:09.962Z,41.30
2022-10-09T11:57:15.107Z,42.29
2022-10-09T12:01:24.007Z,42.90
2022-10-09T12:05:37.880Z,42.81
2022-10-09T12:09:47.446Z,42.78
2022-10-09T12:13:58.282Z,42.86
2022-10-09T12:17:59.985Z,42.33
2022-10-09T12:22:13.321Z,43.58
2022-10-09T12:26:21.364Z,45.72
2022-10-09T12:30:29.139Z,45.54
2022-10-09T12:34:36.177Z,45.11
2022-10-09T12:38:38.236Z,45.54
2022-10-09T12:42:41.257Z,45.39
2022-10-09T12:46:43.097Z,45.63
2022-10-09T12:50:44.743Z,42.07
2022-10-09T12:54:46.272Z,41.42
2022-10-09T12:58:48.021Z,40.66
2022-10-09T13:02:49.974Z,43.48
2022-10-09T13:06:53.431Z,44.43
2022-10-09T13:10:55.807Z,44.04
2022-10-09T13:15:04.096Z,43.55
2022-10-09T13:19:24.474Z,44.11
2022-10-09T13:23:30.209Z,43.62
2022-10-09T13:27:35.258Z,45.66
2022-10-09T13:31:37.111Z,45.56
2022-10-09T13:35:42.027Z,42.78
2022-10-09T13:39:43.702Z,43.36
2022-10-09T13:43:45.767Z,43.30
2022-10-09T13:47:47.866Z,44.01
2022-10-09T13:51:49.809Z,43.38
2022-10-09T13:55:59.986Z,41.86
2022-10-09T14:00:04.014Z,43.04
2022-10-09T14:04:13.674Z,43.31
2022-10-09T14:08:15.473Z,42.69
2022-10-09T14:12:17.227Z,42.06
2022-10-09T14:16:21.509Z,42.37
2022-10-09T14:20:25.128Z,42.01
2022-10-09T14:24:27.575Z,41.73
2022-10-09T14:28:29.292Z,39.92
2022-10-09T14:32:41.754Z,34.30
2022-10-09T14:36:46.549Z,29.00
2022-10-09T14:40:48.316Z,26.13
2022-10-09T14:44:52.151Z,23.91
2022-10-09T14:48:57.928Z,22.65
2022-10-09T14:52:59.606Z,21.83
2022-10-09T14:57:03.544Z,21.35
2022-10-09T15:01:05.643Z,20.72
2022-10-09T15:05:08.492Z,20.21
2022-10-09T15:09:10.275Z,19.84
2022-10-09T15:13:12.009Z,19.70
2022-10-09T15:17:13.728Z,19.38
2022-10-09T15:21:18.616Z,19.08
2022-10-09T15:25:20.305Z,18.70
2022-10-09T15:29:22.110Z,18.46
2022-10-09T15:33:23.718Z,18.28
2022-10-09T15:37:25.380Z,18.12
2022-10-09T15:41:30.253Z,18.21
2022-10-09T15:45:34.606Z,18.15
2022-10-09T15:49:36.369Z,17.72
2022-10-09T15:53:38.792Z,17.62
2022-10-09T15:57:40.500Z,17.51
2022-10-09T16:01:42.770Z,17.39
2022-10-09T16:05:50.679Z,17.26
2022-10-09T16:09:54.588Z,16.97
2022-10-09T16:13:57.476Z,16.80
2022-10-09T16:17:59.067Z,16.61
2022-10-09T16:22:00.624Z,16.46
2022-10-09T16:26:03.612Z,16.26
2022-10-09T16:30:05.664Z,16.10
2022-10-09T16:34:07.977Z,15.99
2022-10-09T16:38:09.483Z,15.84
2022-10-09T16:42:11.794Z,15.73
2022-10-09T16:46:23.301Z,15.55
2022-10-09T16:50:25.605Z,15.39
2022-10-09T16:54:30.465Z,15.17
2022-10-09T16:58:32.153Z,15.00
2022-10-09T17:02:33.697Z,14.83
2022-10-09T17:06:35.596Z,14.61
2022-10-09T17:10:41.820Z,14.35
2022-10-09T17:14:43.509Z,14.21
2022-10-09T17:18:46.789Z,13.94
2022-10-09T17:22:49.033Z,13.74
2022-10-09T17:26:50.798Z,13.58
2022-10-09T17:30:52.415Z,13.42
2022-10-09T17:34:54.084Z,13.30
2022-10-09T17:38:56.469Z,13.18
2022-10-09T17:42:58.215Z,13.12
2022-10-09T17:47:00.849Z,13.06
2022-10-09T17:51:06.357Z,12.91
2022-10-09T17:55:11.230Z,12.90
2022-10-09T17:59:12.867Z,13.07
2022-10-09T18:03:15.536Z,12.95
2022-10-09T18:07:19.414Z,12.79
2022-10-09T18:11:23.430Z,12.80
2022-10-09T18:15:24.983Z,12.66
2022-10-09T18:19:26.665Z,12.54
2022-10-09T18:23:28.258Z,12.37
2022-10-09T18:27:29.901Z,12.12
2022-10-09T18:31:32.273Z,12.07
2022-10-09T18:35:38.586Z,12.06
2022-10-09T18:39:40.125Z,11.92
2022-10-09T18:43:41.875Z,11.88
2022-10-09T18:47:44.306Z,11.79
2022-10-09T18:51:47.253Z,11.53
2022-10-09T18:55:49.227Z,11.35
2022-10-09T18:59:52.683Z,11.42
2022-10-09T19:03:55.788Z,11.35
2022-10-09T19:07:57.614Z,11.24
2022-10-09T19:11:59.254Z,11.07
2022-10-09T19:16:04.569Z,11.02
2022-10-09T19:20:06.755Z,10.96
2022-10-09T19:24:08.762Z,10.84
2022-10-09T19:28:11.656Z,10.69
2022-10-09T19:32:13.338Z,10.64
2022-10-09T19:36:15.290Z,10.46
2022-10-09T19:40:16.844Z,10.44
2022-10-09T19:44:21.217Z,10.33
2022-10-09T19:48:24.290Z,10.27
2022-10-09T19:52:26.103Z,10.12
2022-10-09T19:56:30.909Z,10.14
2022-10-09T20:00:32.665Z,10.20
2022-10-09T20:04:34.466Z,10.18
2022-10-09T20:08:37.891Z,9.94
2022-10-09T20:12:39.764Z,9.90
2022-10-09T20:16:41.320Z,9.89
2022-10-09T20:20:47.750Z,9.70
2022-10-09T20:24:53.832Z,9.68
2022-10-09T20:28:55.743Z,9.65
2022-10-09T20:32:59.479Z,9.61
2022-10-09T20:37:01.457Z,9.66
2022-10-09T20:41:08.252Z,9.57
2022-10-09T20:45:09.964Z,9.56
2022-10-09T20:49:13.859Z,9.47
2022-10-09T20:53:16.607Z,9.43
2022-10-09T20:57:18.817Z,9.38
2022-10-09T21:01:21.724Z,9.37
2022-10-09T21:05:23.647Z,9.28
2022-10-09T21:09:28.484Z,9.33
2022-10-09T21:13:33.264Z,9.26
2022-10-09T21:17:35.323Z,9.26
2022-10-09T21:21:37.082Z,9.28
2022-10-09T21:25:39.235Z,9.21
2022-10-09T21:29:40.934Z,9.27
2022-10-09T21:33:42.596Z,9.19
2022-10-09T21:37:44.203Z,9.26
2022-10-09T21:41:45.906Z,9.19
2022-10-09T21:45:50.101Z,9.19
2022-10-09T21:49:51.678Z,9.27
2022-10-09T21:53:54.484Z,9.20
2022-10-09T21:57:56.150Z,9.25
2022-10-09T22:01:57.732Z,9.21
2022-10-09T22:06:00.318Z,9.20
2022-10-09T22:10:02.281Z,9.27
2022-10-09T22:14:05.458Z,9.30
2022-10-09T22:18:07.061Z,9.32
2022-10-09T22:22:08.855Z,9.38
2022-10-09T22:26:13.725Z,9.37
2022-10-09T22:30:15.966Z,9.47
2022-10-09T22:34:18.622Z,9.40
2022-10-09T22:38:20.260Z,9.48
2022-10-09T22:42:21.891Z,9.55
2022-10-09T22:46:30.165Z,9.62
2022-10-09T22:50:31.778Z,9.74
2022-10-09T22:54:33.446Z,9.68
2022-10-09T22:58:35.771Z,9.72
2022-10-09T23:02:37.396Z,9.74
2022-10-09T23:06:40.167Z,9.76
2022-10-09T23:10:42.003Z,9.74
2022-10-09T23:14:43.660Z,9.63
2022-10-09T23:18:45.678Z,9.68
2022-10-09T23:22:47.561Z,9.66
2022-10-09T23:26:50.887Z,9.67
2022-10-09T23:30:52.644Z,9.66
2022-10-09T23:34:54.205Z,9.65
2022-10-09T23:38:56.796Z,9.60
2022-10-09T23:42:58.469Z,9.59
2022-10-09T23:47:00.135Z,9.76
2022-10-09T23:51:02.571Z,9.69
2022-10-09T23:55:04.696Z,9.59
2022-10-09T23:59:06.480Z,9.63
